Cleburne, Illinois
Current Conditions -  °F | °C
As of 5:52 AM on Thursday 18 Dec 2014 (Local Time) from KMDH Reporting Station
Light Snow Light Snow  
Wind Chill: 31°   Ceiling: 4200
Heat Index: 31°   Visibility: 3mi
Dew Point: 27°   Wind: 3mph
Humidity: 85%   Direction: 80°E
Pressure: 30.27"   Gusts: NA
Location:  37.9667°N, 89.1298°W
Report Text: KMDH 181152Z AUTO 08003KT 3SM -SN BR OVC042 M01/M03 A3027 RMK AO2 SNB22 SLP252 P0000 60001 70001 T10061028 10006 21006 56003
Loading
Personal Weather Stations






























Interactive Weather Map New forecast layout! Learn more

10-Day Weather Forecast

Advertisements
Track Severe Weather on mobile